Portada
METAR-TAF:

METAR-TAF

Aeropuertos :

Jefferson City Memorial Airport

Jefferson City, Misuri, Estados Unidos

latitud: 38-35-40N, longitud: 092-09-21W, altitud: 167 m

Observación

El informe se hizo hace 46 minutos, a las 06:00 UTC
Viento calma
Temperatura 22°C
Humedad 88%
Presión 1015 hPa
Visibilidad: 0.4 km
niebla

METAR: KJEF 060600Z AUTO 00000KT 1/4SM FG VV002 22/20 A2997 RMK AO2 T02220200

Hora: 01:46 (06:46 UTC)


TAF: falta

Observaciones y pronósticos meteorológicos de más de 4000 aeropuertos (mensajes METAR y TAF).

Los puntos amarillos y rojos representan las estaciones disponibles.

Ponga el ratón en el punto deseado para ver el nombre de la estación.

Haga clic para ver las observaciones y los pronósticos meteorológicos.

Para cambiar el mapa : haga clic en los botones verdes con una cruz de color negro para hacer un zoom, en el botón verde con un guión para alejar o en las flechas verdes para mapas adyacentes.


METAR-TAF: